Time;durP1;ratioP1;P1;durP2;ratioP2;P2;SDS_P1;SDS_P2;PMS_P1;PMS_P2;Temp;Humidity;BMP_temperature;BMP_pressure;BME280_temperature;BME280_humidity;BME280_pressure;Samples;Min_cycle;Max_cycle;Signal;HPM_P1;HPM_P2
2022/08/06 00:01:53;;;;;;;0.38;0.35;;;15.40;99.90;;;;;;5061401;28;20040;-79
2022/08/06 00:04:20;;;;;;;1.17;0.52;;;15.40;99.90;;;;;;5079103;28;20047;-79
2022/08/06 00:06:45;;;;;;;0.28;0.28;;;15.30;99.90;;;;;;5078363;28;20131;-79
2022/08/06 00:09:11;;;;;;;0.32;0.32;;;15.20;99.90;;;;;;5079222;28;20139;-79
2022/08/06 00:11:38;;;;;;;1.80;0.50;;;15.20;99.90;;;;;;5079282;28;20473;-79
2022/08/06 00:14:04;;;;;;;0.38;0.30;;;15.20;99.90;;;;;;5079022;28;20079;-79
2022/08/06 00:16:29;;;;;;;0.75;0.43;;;15.20;99.90;;;;;;5079173;28;20533;-79
2022/08/06 00:18:55;;;;;;;0.30;0.30;;;15.20;99.90;;;;;;5078790;28;20052;-78
2022/08/06 00:21:20;;;;;;;1.13;0.50;;;15.20;99.90;;;;;;5077889;28;20047;-79
2022/08/06 00:23:46;;;;;;;0.60;0.60;;;15.20;99.90;;;;;;5060833;28;20031;-78
2022/08/06 00:26:12;;;;;;;0.75;0.30;;;15.20;99.90;;;;;;5078656;28;20389;-78
2022/08/06 00:28:37;;;;;;;0.20;0.20;;;15.10;99.90;;;;;;5060606;28;20509;-78
2022/08/06 00:31:04;;;;;;;0.60;0.30;;;15.10;99.90;;;;;;5079365;28;20063;-78
2022/08/06 00:33:30;;;;;;;0.40;0.40;;;15.10;99.90;;;;;;5079184;28;20081;-78
2022/08/06 00:35:55;;;;;;;0.77;0.60;;;15.00;99.90;;;;;;5077354;28;20479;-78
2022/08/06 00:38:21;;;;;;;0.20;0.20;;;15.00;99.90;;;;;;5060688;28;20063;-79
2022/08/06 00:40:47;;;;;;;1.52;1.10;;;14.90;99.90;;;;;;5078822;28;20239;-78
2022/08/06 00:43:13;;;;;;;2.95;1.10;;;14.90;99.90;;;;;;5060570;28;20044;-79
2022/08/06 00:45:39;;;;;;;1.48;1.38;;;14.90;99.90;;;;;;5078642;28;20050;-79
2022/08/06 00:48:04;;;;;;;1.40;1.25;;;14.80;99.90;;;;;;5078618;28;20479;-79
2022/08/06 00:50:31;;;;;;;0.80;0.80;;;14.70;99.90;;;;;;5078365;28;20090;-79
2022/08/06 00:52:58;;;;;;;1.45;0.52;;;14.70;99.90;;;;;;5077899;28;20039;-79
2022/08/06 00:55:24;;;;;;;1.90;0.70;;;14.60;99.90;;;;;;5078412;28;20047;-78
2022/08/06 00:57:49;;;;;;;0.75;0.73;;;14.60;99.90;;;;;;5078440;28;20047;-78
2022/08/06 01:00:15;;;;;;;1.48;0.93;;;14.50;99.90;;;;;;5060575;28;20036;-78
2022/08/06 01:02:42;;;;;;;0.88;0.55;;;14.50;99.90;;;;;;5078580;28;20036;-78
2022/08/06 01:05:08;;;;;;;1.20;0.60;;;14.40;99.90;;;;;;5078185;28;20101;-79
2022/08/06 01:07:33;;;;;;;0.73;0.73;;;14.40;99.90;;;;;;5088005;22;20043;-78
2022/08/06 01:09:59;;;;;;;1.02;0.52;;;14.40;99.90;;;;;;5078449;28;20044;-79
2022/08/06 01:12:26;;;;;;;0.85;0.60;;;14.40;99.90;;;;;;5077254;28;20036;-78
2022/08/06 01:14:51;;;;;;;0.63;0.63;;;14.40;99.90;;;;;;5060473;28;20040;-78
2022/08/06 01:17:32;;;;;;;2.78;0.63;;;14.40;99.90;;;;;;5078481;28;20047;-78
2022/08/06 01:20:16;;;;;;;2.45;1.30;;;14.30;99.90;;;;;;5078632;28;20097;-78
2022/08/06 01:23:19;;;;;;;0.55;0.55;;;14.30;99.90;;;;;;5077608;28;20036;-78
2022/08/06 01:26:15;;;;;;;0.88;0.88;;;14.20;99.90;;;;;;5060035;28;20048;-78
2022/08/06 01:28:58;;;;;;;5.65;0.93;;;14.20;99.90;;;;;;5060220;28;20082;-78
2022/08/06 01:31:41;;;;;;;0.50;0.45;;;14.20;99.90;;;;;;5060247;28;20048;-78
2022/08/06 01:34:13;;;;;;;0.70;0.70;;;14.20;99.90;;;;;;5060664;28;20062;-78
2022/08/06 01:36:47;;;;;;;0.50;0.50;;;14.20;99.90;;;;;;5077568;28;20043;-78
2022/08/06 01:39:17;;;;;;;0.90;0.90;;;14.20;99.90;;;;;;5059906;28;20510;-79
2022/08/06 01:41:46;;;;;;;0.77;0.70;;;14.20;99.90;;;;;;5077926;28;20102;-79
2022/08/06 01:44:16;;;;;;;1.15;0.60;;;14.10;99.90;;;;;;5078222;28;20094;-79
2022/08/06 01:46:48;;;;;;;1.00;0.70;;;14.10;99.90;;;;;;5060070;28;20233;-78
2022/08/06 01:49:19;;;;;;;1.08;0.88;;;14.10;99.90;;;;;;5060067;28;20127;-78
2022/08/06 01:51:47;;;;;;;1.85;0.70;;;14.00;99.90;;;;;;5059237;28;20048;-78
2022/08/06 01:54:14;;;;;;;0.82;0.82;;;14.00;99.90;;;;;;5077639;28;20083;-78
2022/08/06 01:56:43;;;;;;;6.13;0.80;;;13.90;99.90;;;;;;5060054;28;20075;-79
2022/08/06 01:59:12;;;;;;;1.20;0.88;;;13.90;99.90;;;;;;5059726;28;20036;-78
2022/08/06 02:01:39;;;;;;;1.58;0.93;;;13.90;99.90;;;;;;5078542;28;20138;-78
2022/08/06 02:04:06;;;;;;;0.75;0.70;;;13.80;99.90;;;;;;5078516;28;20032;-78
2022/08/06 02:06:41;;;;;;;1.08;0.98;;;13.90;99.90;;;;;;5077190;28;20119;-78
2022/08/06 02:09:15;;;;;;;1.20;1.10;;;13.80;99.90;;;;;;5078365;28;20080;-78
2022/08/06 02:11:43;;;;;;;0.90;0.80;;;13.80;99.90;;;;;;5059641;28;20048;-78
2022/08/06 02:14:11;;;;;;;1.52;1.15;;;13.80;99.90;;;;;;5059676;28;20568;-78
2022/08/06 02:16:39;;;;;;;0.70;0.70;;;13.80;99.90;;;;;;5078195;28;20044;-78
2022/08/06 02:19:07;;;;;;;0.85;0.65;;;13.80;99.90;;;;;;5078420;28;20063;-78
2022/08/06 02:21:35;;;;;;;1.33;1.23;;;13.80;99.90;;;;;;5059250;28;20059;-79
2022/08/06 02:24:05;;;;;;;0.98;0.77;;;13.80;99.90;;;;;;5080572;28;20047;-78
2022/08/06 02:26:32;;;;;;;0.90;0.60;;;13.80;99.90;;;;;;5063091;28;20139;-78
2022/08/06 02:28:59;;;;;;;1.90;1.30;;;13.70;99.90;;;;;;5081562;28;20048;-78
2022/08/06 02:31:25;;;;;;;1.80;0.82;;;13.70;99.90;;;;;;5063568;28;20095;-79
2022/08/06 02:33:51;;;;;;;1.25;1.10;;;13.70;99.90;;;;;;5081115;28;20071;-76
2022/08/06 02:36:34;;;;;;;3.72;1.15;;;13.70;99.90;;;;;;5080417;28;20119;-75
2022/08/06 02:39:08;;;;;;;1.65;1.42;;;13.70;99.90;;;;;;5081171;28;20201;-75
2022/08/06 02:41:49;;;;;;;1.17;1.13;;;13.60;99.90;;;;;;5081558;28;20047;-75
2022/08/06 02:44:16;;;;;;;1.25;1.15;;;13.60;99.90;;;;;;5080832;28;20032;-75
2022/08/06 02:47:16;;;;;;;0.50;0.50;;;13.70;99.90;;;;;;5081476;28;20085;-75
2022/08/06 02:49:46;;;;;;;0.82;0.77;;;13.70;99.90;;;;;;5081280;28;20391;-75
2022/08/06 02:52:19;;;;;;;0.80;0.80;;;13.70;99.90;;;;;;5061898;28;20044;-75
2022/08/06 02:55:02;;;;;;;1.10;1.08;;;13.70;99.90;;;;;;5080599;28;20070;-76
2022/08/06 02:57:32;;;;;;;0.60;0.60;;;13.70;99.90;;;;;;5080932;28;20088;-75
2022/08/06 03:00:07;;;;;;;1.20;1.02;;;13.70;99.90;;;;;;5080572;28;20075;-75
2022/08/06 03:02:36;;;;;;;3.92;1.70;;;13.70;99.90;;;;;;5080946;28;20271;-76
2022/08/06 03:05:04;;;;;;;1.20;1.10;;;13.60;99.90;;;;;;5080814;28;20946;-75
2022/08/06 03:07:32;;;;;;;0.77;0.77;;;13.70;99.90;;;;;;5079604;28;20579;-75
2022/08/06 03:10:00;;;;;;;1.42;1.33;;;13.70;99.90;;;;;;5080824;28;20051;-75
2022/08/06 03:12:26;;;;;;;0.60;0.60;;;13.70;99.90;;;;;;5062320;28;20047;-76
2022/08/06 03:14:53;;;;;;;0.80;0.80;;;13.70;99.90;;;;;;5080730;28;20058;-75
2022/08/06 03:17:20;;;;;;;4.10;0.85;;;13.70;99.90;;;;;;5080491;28;20067;-75
2022/08/06 03:19:47;;;;;;;1.17;1.13;;;13.60;99.90;;;;;;5079905;28;20048;-76
2022/08/06 03:22:16;;;;;;;1.75;1.13;;;13.70;99.90;;;;;;5079639;28;20040;-75
2022/08/06 03:24:44;;;;;;;0.90;0.90;;;13.70;99.90;;;;;;5080106;28;20425;-76
2022/08/06 03:27:11;;;;;;;0.60;0.60;;;13.70;99.90;;;;;;5062920;28;21016;-76
2022/08/06 03:29:40;;;;;;;2.42;0.65;;;13.70;99.90;;;;;;5079917;28;20047;-76
2022/08/06 03:32:07;;;;;;;0.80;0.80;;;13.70;99.90;;;;;;5080579;28;20494;-75
2022/08/06 03:34:35;;;;;;;1.77;1.00;;;13.70;99.90;;;;;;5079210;28;20101;-76
2022/08/06 03:37:02;;;;;;;1.25;0.80;;;13.80;99.90;;;;;;5079514;28;20240;-76
2022/08/06 03:39:30;;;;;;;1.25;1.00;;;13.80;99.90;;;;;;5061939;28;20048;-76
2022/08/06 03:41:56;;;;;;;2.67;1.10;;;13.70;99.90;;;;;;5080152;28;20551;-75
2022/08/06 03:44:22;;;;;;;1.05;0.98;;;13.80;99.90;;;;;;5079951;28;20032;-76
2022/08/06 03:46:56;;;;;;;1.75;0.90;;;13.70;99.90;;;;;;5079582;28;20044;-76
2022/08/06 03:49:50;;;;;;;0.88;0.85;;;13.70;99.90;;;;;;5080219;28;20055;-76
2022/08/06 03:52:30;;;;;;;1.85;0.80;;;13.70;99.90;;;;;;5074344;28;20048;-75
2022/08/06 03:55:01;;;;;;;0.50;0.50;;;13.70;99.90;;;;;;5079451;28;20051;-76
2022/08/06 03:57:32;;;;;;;1.27;1.17;;;13.70;99.90;;;;;;5079937;28;20186;-75
2022/08/06 04:00:00;;;;;;;0.65;0.65;;;13.70;99.90;;;;;;5079814;28;20075;-75
2022/08/06 04:02:33;;;;;;;1.50;1.25;;;13.70;99.90;;;;;;5079234;28;20615;-75
2022/08/06 04:05:00;;;;;;;4.55;0.88;;;13.70;99.90;;;;;;5079816;28;20028;-76
2022/08/06 04:07:28;;;;;;;0.88;0.70;;;13.60;99.90;;;;;;5060583;28;20048;-75
2022/08/06 04:09:54;;;;;;;2.00;1.02;;;13.70;99.90;;;;;;5061339;28;20051;-75
2022/08/06 04:12:20;;;;;;;1.77;0.50;;;13.60;99.90;;;;;;5079585;28;20051;-75
2022/08/06 04:14:47;;;;;;;1.27;1.17;;;13.60;99.90;;;;;;5078974;28;20036;-75
2022/08/06 04:17:14;;;;;;;0.88;0.85;;;13.60;99.90;;;;;;5079862;28;20035;-76
2022/08/06 04:19:40;;;;;;;0.70;0.70;;;13.60;99.90;;;;;;5061016;28;20044;-76
2022/08/06 04:22:06;;;;;;;2.13;0.80;;;13.60;99.90;;;;;;5078046;28;20036;-75
2022/08/06 04:24:31;;;;;;;1.15;0.63;;;13.60;99.90;;;;;;5060798;28;20564;-75
2022/08/06 04:27:04;;;;;;;4.93;0.75;;;13.60;99.90;;;;;;5079116;28;20206;-76
2022/08/06 04:29:31;;;;;;;2.25;0.85;;;13.60;99.90;;;;;;5060968;28;20472;-76
2022/08/06 04:31:59;;;;;;;0.90;0.88;;;13.60;99.90;;;;;;5079482;28;20048;-75
2022/08/06 04:34:27;;;;;;;1.35;0.90;;;13.60;99.90;;;;;;5078842;28;20040;-76
2022/08/06 04:36:54;;;;;;;1.13;1.02;;;13.60;99.90;;;;;;5059993;28;20040;-76
2022/08/06 04:39:21;;;;;;;0.77;0.73;;;13.60;99.90;;;;;;5078879;28;20036;-75
2022/08/06 04:41:48;;;;;;;0.65;0.57;;;13.60;99.90;;;;;;5079109;28;20040;-75
2022/08/06 04:44:14;;;;;;;1.23;1.13;;;13.70;99.90;;;;;;5079334;28;20119;-76
2022/08/06 04:46:40;;;;;;;1.50;1.38;;;13.70;99.90;;;;;;5078755;28;20186;-75
2022/08/06 04:49:05;;;;;;;1.15;0.98;;;13.70;99.90;;;;;;5078656;28;20089;-76
2022/08/06 04:51:31;;;;;;;1.17;1.17;;;13.80;99.90;;;;;;5060038;28;20039;-75
2022/08/06 04:53:57;;;;;;;1.08;0.98;;;13.80;99.90;;;;;;5078531;28;20040;-76
2022/08/06 04:56:22;;;;;;;1.95;0.63;;;13.90;99.90;;;;;;5078361;28;20048;-75
2022/08/06 04:58:48;;;;;;;1.38;1.02;;;14.00;99.90;;;;;;5079271;28;20046;-75
2022/08/06 05:01:14;;;;;;;1.77;1.10;;;14.00;99.90;;;;;;5079117;28;20111;-75
2022/08/06 05:03:40;;;;;;;1.65;1.30;;;14.00;99.90;;;;;;5078432;28;20048;-76
2022/08/06 05:06:29;;;;;;;1.38;1.27;;;14.10;99.90;;;;;;5077577;28;20210;-78
2022/08/06 05:09:01;;;;;;;1.40;1.23;;;14.10;99.90;;;;;;5060021;28;20498;-78
2022/08/06 05:11:34;;;;;;;1.88;1.73;;;14.10;99.90;;;;;;5078526;28;20047;-78
2022/08/06 05:14:04;;;;;;;2.10;1.25;;;14.10;99.90;;;;;;5078548;28;20036;-78
2022/08/06 05:16:33;;;;;;;1.58;1.48;;;14.20;99.90;;;;;;5078491;28;21104;-78
2022/08/06 05:19:04;;;;;;;2.17;1.33;;;14.20;99.90;;;;;;5078820;28;20089;-78
2022/08/06 05:21:35;;;;;;;4.28;1.85;;;14.20;99.90;;;;;;5077120;28;20083;-78
2022/08/06 05:24:02;;;;;;;1.55;1.20;;;14.20;99.90;;;;;;5060118;28;20066;-78
2022/08/06 05:26:28;;;;;;;1.38;1.27;;;14.30;99.90;;;;;;5059707;28;20035;-78
2022/08/06 05:28:53;;;;;;;1.90;1.60;;;14.30;99.90;;;;;;5078080;28;21131;-79
2022/08/06 05:31:37;;;;;;;1.60;1.02;;;14.30;99.90;;;;;;5078587;28;20546;-78
2022/08/06 05:34:10;;;;;;;1.50;1.40;;;14.40;99.90;;;;;;5060111;28;20052;-78
2022/08/06 05:36:37;;;;;;;1.52;0.88;;;14.40;99.90;;;;;;5077290;28;20860;-78
2022/08/06 05:39:03;;;;;;;5.07;1.88;;;14.40;99.90;;;;;;5078313;28;20235;-79
2022/08/06 05:41:28;;;;;;;2.65;1.42;;;14.50;99.90;;;;;;5077843;28;20040;-78
2022/08/06 05:43:54;;;;;;;2.10;0.90;;;14.50;99.90;;;;;;5078165;28;20090;-78
2022/08/06 05:46:22;;;;;;;1.60;1.45;;;14.50;99.90;;;;;;5060244;28;20044;-78
2022/08/06 05:48:54;;;;;;;1.08;1.00;;;14.60;99.90;;;;;;5078794;28;20040;-78
2022/08/06 05:51:33;;;;;;;1.00;1.00;;;14.60;99.90;;;;;;5077671;28;20056;-79
2022/08/06 05:54:05;;;;;;;2.15;0.70;;;14.70;99.90;;;;;;5078287;28;20047;-78
2022/08/06 05:56:43;;;;;;;5.47;1.08;;;14.70;99.90;;;;;;5059885;28;20044;-78
2022/08/06 05:59:20;;;;;;;2.78;1.55;;;14.70;99.90;;;;;;5080970;28;20055;-78
2022/08/06 06:01:49;;;;;;;1.00;0.80;;;14.80;99.90;;;;;;5082094;28;20134;-78
2022/08/06 06:04:17;;;;;;;0.90;0.65;;;14.90;99.90;;;;;;5081920;28;20035;-78
2022/08/06 06:06:43;;;;;;;1.75;0.95;;;15.00;99.90;;;;;;5081088;28;20552;-78
2022/08/06 06:09:10;;;;;;;1.20;0.65;;;15.10;99.90;;;;;;5081544;28;20059;-78
2022/08/06 06:11:37;;;;;;;1.08;0.93;;;15.10;99.90;;;;;;5081625;28;20067;-78
2022/08/06 06:14:03;;;;;;;1.52;1.10;;;15.20;99.90;;;;;;5081689;28;20040;-78
2022/08/06 06:16:46;;;;;;;1.48;1.20;;;15.20;99.90;;;;;;5081674;28;20040;-78
2022/08/06 06:19:44;;;;;;;1.30;0.90;;;15.30;99.90;;;;;;5081415;28;20131;-79
2022/08/06 06:22:09;;;;;;;0.82;0.82;;;15.40;99.90;;;;;;5044327;28;20135;-78
2022/08/06 06:24:53;;;;;;;2.05;1.23;;;15.40;99.90;;;;;;5063131;28;20408;-78
2022/08/06 06:27:27;;;;;;;1.45;1.00;;;15.40;99.90;;;;;;5081816;28;20040;-79
2022/08/06 06:30:06;;;;;;;3.22;1.70;;;15.50;99.90;;;;;;5063796;28;20687;-78
2022/08/06 06:32:56;;;;;;;1.17;1.08;;;15.60;99.90;;;;;;5081230;28;20403;-79
2022/08/06 06:35:57;;;;;;;2.42;1.40;;;15.60;99.90;;;;;;5062741;28;20091;-79
2022/08/06 06:38:56;;;;;;;1.45;0.95;;;15.70;99.90;;;;;;5063401;28;20051;-79
2022/08/06 06:41:57;;;;;;;0.82;0.73;;;15.70;99.90;;;;;;5046769;28;20048;-78
2022/08/06 06:44:32;;;;;;;2.67;1.10;;;15.80;99.90;;;;;;5063176;28;20048;-78
2022/08/06 06:47:01;;;;;;;1.58;1.30;;;15.80;99.90;;;;;;5081071;28;20308;-79
2022/08/06 06:49:33;;;;;;;1.05;0.98;;;15.90;99.90;;;;;;5063431;28;20238;-78
2022/08/06 06:52:07;;;;;;;1.52;0.90;;;15.90;99.90;;;;;;5063338;28;20052;-78
2022/08/06 06:54:39;;;;;;;1.30;1.20;;;15.90;99.90;;;;;;5062627;28;20047;-78
2022/08/06 06:57:09;;;;;;;0.55;0.52;;;15.90;99.90;;;;;;5062624;28;20040;-78
2022/08/06 06:59:37;;;;;;;2.33;1.50;;;16.00;99.90;;;;;;5080639;28;20044;-78
2022/08/06 07:02:04;;;;;;;1.40;1.08;;;16.00;99.90;;;;;;5080973;28;20040;-79
2022/08/06 07:04:31;;;;;;;1.00;0.80;;;16.00;99.90;;;;;;5080009;28;20048;-78
2022/08/06 07:06:59;;;;;;;2.38;1.25;;;16.10;99.90;;;;;;5080593;28;20044;-79
2022/08/06 07:09:28;;;;;;;5.35;0.80;;;16.10;99.90;;;;;;5045011;28;20048;-79
2022/08/06 07:11:56;;;;;;;3.83;1.17;;;16.10;99.90;;;;;;5062516;28;20060;-78
2022/08/06 07:14:23;;;;;;;1.38;1.10;;;16.20;99.90;;;;;;5080854;28;20043;-79
2022/08/06 07:16:55;;;;;;;1.83;1.10;;;16.20;99.90;;;;;;5062085;28;20310;-78
2022/08/06 07:19:23;;;;;;;1.35;1.00;;;16.20;99.90;;;;;;5080390;28;20269;-79
2022/08/06 07:21:50;;;;;;;2.15;1.42;;;16.30;99.90;;;;;;5061603;28;20308;-78
2022/08/06 07:24:17;;;;;;;4.03;1.67;;;16.30;99.90;;;;;;5080225;28;20048;-78
2022/08/06 07:26:45;;;;;;;1.65;0.98;;;16.30;99.90;;;;;;5080611;28;20324;-79
2022/08/06 07:29:14;;;;;;;2.25;0.98;;;16.40;99.90;;;;;;5080719;28;20036;-78
2022/08/06 07:31:41;;;;;;;1.77;1.67;;;16.40;99.90;;;;;;5080016;28;20399;-79
2022/08/06 07:34:07;;;;;;;2.67;1.33;;;16.50;99.90;;;;;;5080208;28;20070;-79
2022/08/06 07:36:37;;;;;;;2.22;1.35;;;16.50;99.90;;;;;;5044438;28;20047;-79
2022/08/06 07:39:09;;;;;;;1.33;0.98;;;16.50;99.90;;;;;;5079945;28;20044;-79
2022/08/06 07:41:37;;;;;;;1.00;0.68;;;16.50;99.90;;;;;;5045261;28;20048;-79
2022/08/06 07:44:06;;;;;;;1.45;0.73;;;16.40;99.90;;;;;;5079863;28;20039;-78
2022/08/06 07:46:37;;;;;;;0.90;0.90;;;16.40;99.90;;;;;;5061507;28;20498;-79
2022/08/06 07:49:06;;;;;;;2.42;1.27;;;16.40;99.90;;;;;;5079592;28;20116;-79
2022/08/06 07:51:34;;;;;;;0.95;0.82;;;16.40;99.90;;;;;;5078989;28;20040;-78
2022/08/06 07:54:05;;;;;;;1.25;1.00;;;16.40;99.90;;;;;;5080015;28;20059;-78
2022/08/06 07:56:32;;;;;;;1.58;1.05;;;16.40;99.90;;;;;;5061943;28;20086;-78
2022/08/06 07:58:58;;;;;;;1.48;1.13;;;16.50;99.90;;;;;;5079649;28;20142;-79
2022/08/06 08:01:24;;;;;;;3.40;1.52;;;16.50;99.90;;;;;;5061850;28;20044;-78
2022/08/06 08:06:35;;;;;;;0.90;0.77;;;16.50;99.90;;;;;;5060795;28;20135;-78
2022/08/06 08:09:06;;;;;;;1.23;1.13;;;16.60;99.90;;;;;;5079571;28;20051;-78
2022/08/06 08:11:34;;;;;;;1.40;1.30;;;16.60;99.90;;;;;;5079327;28;20067;-78
2022/08/06 08:14:02;;;;;;;1.73;1.10;;;16.60;99.90;;;;;;5079691;28;20544;-78
2022/08/06 08:16:28;;;;;;;1.58;1.48;;;16.60;99.90;;;;;;5079534;28;20529;-78
2022/08/06 08:18:54;;;;;;;1.52;1.20;;;16.60;99.90;;;;;;5079130;28;21042;-78
2022/08/06 08:21:20;;;;;;;3.83;1.83;;;16.60;99.90;;;;;;5077750;28;20427;-78
2022/08/06 08:23:47;;;;;;;1.83;1.15;;;16.60;99.90;;;;;;5060861;28;20044;-78
2022/08/06 08:26:13;;;;;;;4.63;1.00;;;16.60;99.90;;;;;;5078945;28;20036;-78
2022/08/06 08:28:39;;;;;;;1.23;0.98;;;16.70;99.90;;;;;;5079446;28;20040;-78
2022/08/06 08:31:06;;;;;;;2.75;1.15;;;16.80;99.90;;;;;;5078926;28;20028;-78
2022/08/06 08:33:32;;;;;;;3.50;1.70;;;16.90;99.90;;;;;;5061074;28;20078;-78
2022/08/06 08:35:58;;;;;;;1.23;1.13;;;16.90;99.90;;;;;;5078454;28;20244;-79
2022/08/06 08:38:33;;;;;;;1.48;0.98;;;17.00;99.90;;;;;;5078557;28;20040;-78
2022/08/06 08:41:18;;;;;;;1.38;1.10;;;17.10;99.90;;;;;;5061246;28;20040;-78
2022/08/06 08:43:50;;;;;;;1.20;1.10;;;17.10;99.90;;;;;;5078942;28;20043;-78
2022/08/06 08:46:17;;;;;;;1.00;1.00;;;17.20;99.90;;;;;;5078951;28;20093;-78
2022/08/06 08:48:43;;;;;;;0.90;0.80;;;17.30;99.90;;;;;;5060242;28;20497;-78
2022/08/06 08:51:12;;;;;;;2.63;1.08;;;17.40;99.90;;;;;;5059850;28;20040;-78
2022/08/06 08:53:46;;;;;;;2.78;1.48;;;17.40;99.90;;;;;;5060547;28;20055;-78
2022/08/06 08:56:12;;;;;;;1.92;1.13;;;17.40;99.90;;;;;;5078495;28;20071;-78
2022/08/06 08:58:40;;;;;;;1.05;1.05;;;17.40;99.90;;;;;;5078766;28;20498;-79
2022/08/06 09:01:08;;;;;;;1.33;1.15;;;17.50;99.90;;;;;;5078730;28;20079;-79
2022/08/06 09:03:35;;;;;;;1.83;1.35;;;17.60;99.90;;;;;;5078139;28;20043;-78
2022/08/06 09:06:02;;;;;;;2.13;1.92;;;17.60;99.90;;;;;;5077810;28;20048;-79
2022/08/06 09:08:29;;;;;;;1.13;1.13;;;17.70;99.90;;;;;;5078584;28;20063;-79
2022/08/06 09:10:54;;;;;;;1.17;1.00;;;17.70;99.90;;;;;;5060596;28;20125;-78
2022/08/06 09:13:21;;;;;;;1.40;1.30;;;17.70;99.90;;;;;;5078985;28;20525;-79
2022/08/06 09:15:46;;;;;;;2.10;1.17;;;17.70;99.90;;;;;;5078496;28;20136;-79
2022/08/06 09:18:12;;;;;;;2.35;1.30;;;17.70;99.90;;;;;;5078882;28;20090;-79
2022/08/06 09:20:38;;;;;;;9.20;1.35;;;17.70;99.90;;;;;;5059231;28;20040;-79
2022/08/06 09:23:04;;;;;;;5.70;2.05;;;17.70;99.90;;;;;;5078443;28;20556;-79
2022/08/06 09:25:41;;;;;;;2.40;1.48;;;17.80;99.90;;;;;;5060570;28;20040;-78
2022/08/06 09:28:25;;;;;;;1.35;1.13;;;17.80;99.90;;;;;;5060419;28;20043;-79
2022/08/06 09:31:13;;;;;;;3.25;1.70;;;17.90;99.90;;;;;;5078536;28;20437;-79
2022/08/06 09:33:42;;;;;;;0.82;0.82;;;18.00;99.90;;;;;;5045675;28;20043;-79
2022/08/06 09:36:10;;;;;;;3.20;1.50;;;18.10;99.90;;;;;;5081792;28;20044;-79
2022/08/06 09:38:57;;;;;;;5.75;2.00;;;18.10;99.90;;;;;;5082546;28;20136;-79
2022/08/06 09:41:24;;;;;;;2.47;1.27;;;18.20;99.90;;;;;;5082295;28;20079;-79
2022/08/06 09:43:54;;;;;;;1.95;1.25;;;18.20;99.90;;;;;;5064118;28;20539;-79
2022/08/06 09:46:57;;;;;;;1.88;1.40;;;18.20;99.90;;;;;;5082495;28;20072;-79
2022/08/06 09:49:23;;;;;;;2.38;0.90;;;18.10;99.90;;;;;;4978764;28;20469;-79
2022/08/06 09:51:48;;;;;;;1.48;1.38;;;18.10;99.90;;;;;;5062849;28;20691;-79
2022/08/06 09:54:18;;;;;;;3.53;1.13;;;18.00;99.90;;;;;;5081807;28;20448;-79
2022/08/06 09:56:45;;;;;;;2.22;1.67;;;18.00;99.90;;;;;;5082246;28;20044;-79
2022/08/06 09:59:11;;;;;;;2.38;1.20;;;18.00;99.90;;;;;;5082212;28;20048;-79
2022/08/06 10:01:38;;;;;;;2.03;1.40;;;18.00;99.90;;;;;;5081966;28;20044;-79
2022/08/06 10:04:04;;;;;;;1.85;1.45;;;18.00;99.90;;;;;;5082156;28;20036;-78
2022/08/06 10:06:29;;;;;;;3.50;1.65;;;18.00;99.90;;;;;;5081758;28;20286;-79
2022/08/06 10:09:09;;;;;;;1.40;1.08;;;18.00;99.90;;;;;;5081620;28;20044;-78
2022/08/06 10:11:38;;;;;;;2.03;1.40;;;18.00;99.90;;;;;;5064320;28;20439;-78
2022/08/06 10:14:04;;;;;;;1.40;1.17;;;18.10;99.90;;;;;;5047432;28;20044;-78
2022/08/06 10:16:30;;;;;;;2.58;1.50;;;18.10;99.90;;;;;;5081395;28;20050;-78
2022/08/06 10:18:58;;;;;;;2.67;1.13;;;18.10;99.90;;;;;;5081428;28;20465;-80
2022/08/06 10:21:32;;;;;;;2.10;1.08;;;18.10;99.90;;;;;;5062891;28;20048;-79
2022/08/06 10:24:02;;;;;;;1.58;1.33;;;18.10;99.90;;;;;;5063541;28;20047;-79
2022/08/06 10:26:31;;;;;;;0.88;0.75;;;18.10;99.90;;;;;;5063121;28;20055;-79
2022/08/06 10:29:06;;;;;;;1.17;1.10;;;18.10;99.90;;;;;;5081317;28;20322;-78
2022/08/06 10:31:34;;;;;;;1.83;1.23;;;18.20;99.90;;;;;;5081797;28;20055;-79
2022/08/06 10:34:07;;;;;;;2.10;0.98;;;18.20;99.90;;;;;;5080528;28;20036;-79
2022/08/06 10:36:49;;;;;;;3.78;1.58;;;18.20;99.90;;;;;;5081691;28;20555;-78
2022/08/06 10:39:15;;;;;;;0.85;0.85;;;18.20;99.90;;;;;;5062845;28;20051;-79
2022/08/06 10:41:44;;;;;;;1.83;1.20;;;18.30;99.90;;;;;;5081475;28;20040;-79
2022/08/06 10:44:11;;;;;;;5.95;1.40;;;18.30;99.90;;;;;;5080803;28;20036;-79
2022/08/06 10:46:36;;;;;;;2.13;1.10;;;18.30;99.90;;;;;;5080889;28;20040;-78
2022/08/06 10:49:05;;;;;;;1.58;0.98;;;18.30;99.90;;;;;;5080526;28;20047;-79
2022/08/06 10:51:31;;;;;;;1.40;1.05;;;18.30;99.90;;;;;;5081255;28;20047;-79
2022/08/06 10:53:57;;;;;;;1.20;1.10;;;18.30;99.90;;;;;;5062874;28;20496;-79
2022/08/06 10:56:25;;;;;;;3.08;1.33;;;18.40;99.90;;;;;;5062732;28;20123;-79
2022/08/06 10:58:51;;;;;;;1.63;0.98;;;18.40;99.90;;;;;;5081131;28;20048;-79
2022/08/06 11:01:35;;;;;;;3.53;1.77;;;18.40;99.90;;;;;;5080632;28;20048;-79
2022/08/06 11:04:26;;;;;;;2.85;1.55;;;18.40;99.90;;;;;;5061661;28;20129;-80
2022/08/06 11:06:57;;;;;;;0.90;0.88;;;18.40;99.90;;;;;;5080799;28;20109;-79
2022/08/06 11:09:49;;;;;;;2.35;1.50;;;18.50;99.90;;;;;;5062640;28;20048;-79
2022/08/06 11:12:52;;;;;;;1.38;1.27;;;18.50;99.90;;;;;;5080677;28;20043;-79
2022/08/06 11:15:18;;;;;;;;;;;18.60;99.90;;;;;;4996695;28;20048;-79
2022/08/06 11:17:48;;;;;;;4.30;1.38;;;18.60;99.90;;;;;;5080116;28;19923;-79
2022/08/06 11:20:32;;;;;;;1.23;1.05;;;18.70;99.90;;;;;;5079742;28;20055;-79
2022/08/06 11:23:13;;;;;;;2.40;1.63;;;18.80;99.90;;;;;;5080469;28;20055;-79
2022/08/06 11:25:52;;;;;;;1.70;1.40;;;18.70;99.90;;;;;;5062287;28;20104;-79
2022/08/06 11:28:20;;;;;;;1.20;1.10;;;18.70;99.90;;;;;;5080263;28;20040;-79
2022/08/06 11:30:51;;;;;;;1.25;1.15;;;18.70;99.90;;;;;;5080331;28;20046;-79
2022/08/06 11:33:32;;;;;;;1.20;1.13;;;18.80;99.90;;;;;;5061758;28;20077;-79
2022/08/06 11:35:59;;;;;;;1.38;1.08;;;18.80;99.90;;;;;;5079415;28;20050;-79
2022/08/06 11:38:46;;;;;;;1.30;1.08;;;18.80;99.90;;;;;;5080196;28;20044;-79
2022/08/06 11:41:32;;;;;;;2.90;1.35;;;18.80;99.90;;;;;;5062082;28;20659;-79
2022/08/06 11:43:58;;;;;;;2.05;1.50;;;18.90;99.90;;;;;;5061975;28;20437;-79
2022/08/06 11:46:40;;;;;;;2.33;1.15;;;18.90;99.90;;;;;;5079998;28;20040;-79
2022/08/06 11:49:15;;;;;;;3.92;1.35;;;19.00;99.90;;;;;;5078706;28;20117;-79
2022/08/06 11:51:58;;;;;;;1.55;1.27;;;19.00;99.90;;;;;;5080762;28;20040;-79
2022/08/06 11:54:27;;;;;;;2.28;1.27;;;19.10;99.90;;;;;;5079602;28;20313;-79
2022/08/06 11:57:00;;;;;;;2.22;1.20;;;19.10;99.90;;;;;;5079071;28;20040;-79
2022/08/06 11:59:30;;;;;;;1.40;1.13;;;19.00;99.90;;;;;;5079637;28;20123;-79
2022/08/06 12:01:57;;;;;;;1.60;1.13;;;19.00;99.90;;;;;;5079980;28;20047;-79
2022/08/06 12:04:35;;;;;;;1.33;1.10;;;18.90;99.90;;;;;;5060694;28;20127;-79
2022/08/06 12:07:27;;;;;;;1.33;1.23;;;19.00;99.90;;;;;;5079421;28;20066;-79
2022/08/06 12:10:05;;;;;;;2.00;1.60;;;19.00;99.90;;;;;;5079347;28;20056;-79
2022/08/06 12:12:34;;;;;;;1.20;0.90;;;19.00;99.90;;;;;;5061399;28;20131;-78
2022/08/06 12:15:01;;;;;;;1.95;1.45;;;19.10;99.90;;;;;;5061147;28;20270;-79
2022/08/06 12:17:28;;;;;;;2.10;1.52;;;19.20;99.90;;;;;;5079417;28;20063;-79
2022/08/06 12:19:57;;;;;;;1.48;1.38;;;19.20;99.90;;;;;;5078176;28;20051;-79
2022/08/06 12:22:24;;;;;;;1.80;1.50;;;19.20;99.90;;;;;;5078872;28;20351;-79
2022/08/06 12:24:54;;;;;;;3.47;2.10;;;19.10;99.90;;;;;;5079330;28;20303;-79
2022/08/06 12:27:20;;;;;;;2.67;1.35;;;19.10;99.90;;;;;;5079191;28;20254;-79
2022/08/06 12:29:46;;;;;;;2.50;1.63;;;19.10;99.90;;;;;;5079219;28;20040;-79
2022/08/06 12:32:28;;;;;;;1.45;1.13;;;19.20;99.90;;;;;;5079899;28;20139;-79
2022/08/06 12:34:59;;;;;;;3.88;1.90;;;19.20;99.90;;;;;;5059747;28;20478;-79
2022/08/06 12:37:39;;;;;;;1.50;1.40;;;19.20;99.90;;;;;;5079111;28;20054;-79
2022/08/06 12:40:29;;;;;;;1.25;1.15;;;19.20;99.90;;;;;;5078708;28;20494;-79
2022/08/06 12:43:00;;;;;;;1.95;1.73;;;19.20;99.90;;;;;;5078726;28;20051;-79
2022/08/06 12:45:30;;;;;;;1.77;1.23;;;19.30;99.90;;;;;;5078806;28;20944;-80
2022/08/06 12:48:04;;;;;;;1.48;1.25;;;19.30;99.90;;;;;;5078882;28;20039;-80
2022/08/06 12:50:32;;;;;;;1.55;1.10;;;19.40;99.90;;;;;;5077847;28;20044;-79
2022/08/06 12:53:05;;;;;;;2.90;1.73;;;19.40;99.90;;;;;;5060757;28;20237;-79
2022/08/06 12:55:43;;;;;;;1.63;1.42;;;19.40;99.90;;;;;;5060909;28;20542;-79
2022/08/06 12:58:11;;;;;;;1.25;1.02;;;19.40;99.90;;;;;;5060784;28;20036;-80
2022/08/06 13:00:37;;;;;;;1.75;1.33;;;19.40;99.90;;;;;;5060689;28;20063;-80
2022/08/06 13:03:05;;;;;;;3.78;1.60;;;19.40;99.90;;;;;;5078296;28;20086;-79
2022/08/06 13:05:32;;;;;;;6.15;1.25;;;19.40;99.90;;;;;;5077564;28;20043;-79
2022/08/06 13:07:58;;;;;;;1.60;1.40;;;19.50;99.90;;;;;;5078678;28;20044;-79
2022/08/06 13:10:25;;;;;;;2.60;1.60;;;19.50;99.90;;;;;;5078255;28;20524;-79